sensor_id;sensor_type;location;lat;lon;timestamp;P1;durP1;ratioP1;P2;durP2;ratioP2
65636;SDS011;52327;42.622;23.316;2023-07-08T00:00:28;5.38;;;3.30;;
65636;SDS011;52327;42.622;23.316;2023-07-08T00:02:53;4.80;;;3.47;;
65636;SDS011;52327;42.622;23.316;2023-07-08T00:05:20;4.05;;;3.25;;
65636;SDS011;52327;42.622;23.316;2023-07-08T00:07:46;6.25;;;4.13;;
65636;SDS011;52327;42.622;23.316;2023-07-08T00:10:30;4.80;;;3.45;;
65636;SDS011;52327;42.622;23.316;2023-07-08T00:12:57;4.95;;;4.05;;
65636;SDS011;52327;42.622;23.316;2023-07-08T00:15:27;5.95;;;4.47;;
65636;SDS011;52327;42.622;23.316;2023-07-08T00:17:56;5.07;;;3.28;;
65636;SDS011;52327;42.622;23.316;2023-07-08T00:23:12;3.55;;;2.45;;
65636;SDS011;52327;42.622;23.316;2023-07-08T00:25:38;5.03;;;3.90;;
65636;SDS011;52327;42.622;23.316;2023-07-08T00:28:08;5.50;;;4.25;;
65636;SDS011;52327;42.622;23.316;2023-07-08T00:30:41;3.28;;;2.35;;
65636;SDS011;52327;42.622;23.316;2023-07-08T00:33:07;6.40;;;4.00;;
65636;SDS011;52327;42.622;23.316;2023-07-08T00:35:36;5.80;;;3.08;;
65636;SDS011;52327;42.622;23.316;2023-07-08T00:43:36;6.15;;;3.92;;
65636;SDS011;52327;42.622;23.316;2023-07-08T00:51:24;4.97;;;3.08;;
65636;SDS011;52327;42.622;23.316;2023-07-08T00:53:50;7.30;;;3.60;;
65636;SDS011;52327;42.622;23.316;2023-07-08T00:58:52;4.78;;;3.15;;
65636;SDS011;52327;42.622;23.316;2023-07-08T01:01:23;3.93;;;2.47;;
65636;SDS011;52327;42.622;23.316;2023-07-08T01:03:52;4.85;;;3.80;;
65636;SDS011;52327;42.622;23.316;2023-07-08T01:06:26;4.32;;;3.05;;
65636;SDS011;52327;42.622;23.316;2023-07-08T01:08:56;5.05;;;3.63;;
65636;SDS011;52327;42.622;23.316;2023-07-08T01:11:24;4.78;;;3.67;;
65636;SDS011;52327;42.622;23.316;2023-07-08T01:13:49;3.60;;;3.08;;
65636;SDS011;52327;42.622;23.316;2023-07-08T01:16:16;6.43;;;3.78;;
65636;SDS011;52327;42.622;23.316;2023-07-08T01:18:42;5.22;;;3.38;;
65636;SDS011;52327;42.622;23.316;2023-07-08T01:24:00;5.80;;;3.75;;
65636;SDS011;52327;42.622;23.316;2023-07-08T01:26:29;6.07;;;3.85;;
65636;SDS011;52327;42.622;23.316;2023-07-08T01:28:56;4.45;;;3.33;;
65636;SDS011;52327;42.622;23.316;2023-07-08T01:31:23;3.92;;;3.38;;
65636;SDS011;52327;42.622;23.316;2023-07-08T01:33:48;4.75;;;3.42;;
65636;SDS011;52327;42.622;23.316;2023-07-08T01:36:16;6.05;;;4.05;;
65636;SDS011;52327;42.622;23.316;2023-07-08T01:38:42;3.08;;;2.72;;
65636;SDS011;52327;42.622;23.316;2023-07-08T01:41:10;4.47;;;3.42;;
65636;SDS011;52327;42.622;23.316;2023-07-08T01:43:38;6.45;;;3.30;;
65636;SDS011;52327;42.622;23.316;2023-07-08T01:46:04;5.38;;;3.20;;
65636;SDS011;52327;42.622;23.316;2023-07-08T01:48:39;4.93;;;3.40;;
65636;SDS011;52327;42.622;23.316;2023-07-08T01:51:06;5.65;;;3.65;;
65636;SDS011;52327;42.622;23.316;2023-07-08T01:53:34;4.20;;;3.35;;
65636;SDS011;52327;42.622;23.316;2023-07-08T01:56:05;5.43;;;4.00;;
65636;SDS011;52327;42.622;23.316;2023-07-08T01:58:32;6.25;;;3.25;;
65636;SDS011;52327;42.622;23.316;2023-07-08T02:00:57;3.40;;;2.30;;
65636;SDS011;52327;42.622;23.316;2023-07-08T02:03:23;2.08;;;1.35;;
65636;SDS011;52327;42.622;23.316;2023-07-08T02:05:49;5.55;;;3.40;;
65636;SDS011;52327;42.622;23.316;2023-07-08T02:08:15;3.25;;;2.30;;
65636;SDS011;52327;42.622;23.316;2023-07-08T02:10:41;6.55;;;3.63;;
65636;SDS011;52327;42.622;23.316;2023-07-08T02:13:08;5.68;;;2.88;;
65636;SDS011;52327;42.622;23.316;2023-07-08T02:15:33;1.65;;;1.27;;
65636;SDS011;52327;42.622;23.316;2023-07-08T02:17:59;2.75;;;2.20;;
65636;SDS011;52327;42.622;23.316;2023-07-08T02:20:25;4.63;;;2.67;;
65636;SDS011;52327;42.622;23.316;2023-07-08T02:22:51;5.50;;;4.05;;
65636;SDS011;52327;42.622;23.316;2023-07-08T02:25:17;3.45;;;2.50;;
65636;SDS011;52327;42.622;23.316;2023-07-08T02:27:42;4.32;;;2.65;;
65636;SDS011;52327;42.622;23.316;2023-07-08T02:30:08;2.65;;;2.08;;
65636;SDS011;52327;42.622;23.316;2023-07-08T02:32:34;3.22;;;2.55;;
65636;SDS011;52327;42.622;23.316;2023-07-08T02:35:07;2.55;;;1.85;;
65636;SDS011;52327;42.622;23.316;2023-07-08T02:37:33;2.15;;;1.23;;
65636;SDS011;52327;42.622;23.316;2023-07-08T02:39:59;4.43;;;2.70;;
65636;SDS011;52327;42.622;23.316;2023-07-08T02:42:25;3.00;;;2.10;;
65636;SDS011;52327;42.622;23.316;2023-07-08T02:44:51;3.38;;;2.22;;
65636;SDS011;52327;42.622;23.316;2023-07-08T02:47:16;2.85;;;2.05;;
65636;SDS011;52327;42.622;23.316;2023-07-08T02:49:42;5.80;;;2.78;;
65636;SDS011;52327;42.622;23.316;2023-07-08T02:52:07;2.63;;;1.50;;
65636;SDS011;52327;42.622;23.316;2023-07-08T02:54:33;2.40;;;1.95;;
65636;SDS011;52327;42.622;23.316;2023-07-08T02:56:59;3.03;;;2.30;;
65636;SDS011;52327;42.622;23.316;2023-07-08T02:59:25;3.17;;;2.42;;
65636;SDS011;52327;42.622;23.316;2023-07-08T03:01:52;3.78;;;2.28;;
65636;SDS011;52327;42.622;23.316;2023-07-08T03:04:18;2.90;;;1.95;;
65636;SDS011;52327;42.622;23.316;2023-07-08T03:06:46;5.45;;;2.30;;
65636;SDS011;52327;42.622;23.316;2023-07-08T03:09:14;2.33;;;2.00;;
65636;SDS011;52327;42.622;23.316;2023-07-08T03:11:40;3.35;;;2.40;;
65636;SDS011;52327;42.622;23.316;2023-07-08T03:14:05;2.28;;;1.95;;
65636;SDS011;52327;42.622;23.316;2023-07-08T03:16:31;2.63;;;2.20;;
65636;SDS011;52327;42.622;23.316;2023-07-08T03:18:57;3.13;;;2.38;;
65636;SDS011;52327;42.622;23.316;2023-07-08T03:21:23;3.10;;;2.42;;
65636;SDS011;52327;42.622;23.316;2023-07-08T03:23:49;2.13;;;1.73;;
65636;SDS011;52327;42.622;23.316;2023-07-08T03:26:19;1.92;;;1.75;;
65636;SDS011;52327;42.622;23.316;2023-07-08T03:28:47;4.95;;;2.67;;
65636;SDS011;52327;42.622;23.316;2023-07-08T03:31:13;2.10;;;1.90;;
65636;SDS011;52327;42.622;23.316;2023-07-08T03:33:39;5.07;;;2.53;;
65636;SDS011;52327;42.622;23.316;2023-07-08T03:36:07;5.45;;;3.50;;
65636;SDS011;52327;42.622;23.316;2023-07-08T03:38:48;2.58;;;1.80;;
65636;SDS011;52327;42.622;23.316;2023-07-08T03:41:17;2.53;;;2.33;;
65636;SDS011;52327;42.622;23.316;2023-07-08T03:43:43;3.00;;;1.80;;
65636;SDS011;52327;42.622;23.316;2023-07-08T03:46:12;3.13;;;1.98;;
65636;SDS011;52327;42.622;23.316;2023-07-08T03:48:39;2.17;;;1.98;;
65636;SDS011;52327;42.622;23.316;2023-07-08T03:51:07;2.67;;;1.65;;
65636;SDS011;52327;42.622;23.316;2023-07-08T03:53:46;2.70;;;1.67;;
65636;SDS011;52327;42.622;23.316;2023-07-08T03:56:12;1.50;;;1.25;;
65636;SDS011;52327;42.622;23.316;2023-07-08T03:58:40;1.25;;;1.15;;
65636;SDS011;52327;42.622;23.316;2023-07-08T04:01:09;1.27;;;1.15;;
65636;SDS011;52327;42.622;23.316;2023-07-08T04:03:40;2.65;;;2.40;;
65636;SDS011;52327;42.622;23.316;2023-07-08T04:06:05;1.60;;;1.40;;
65636;SDS011;52327;42.622;23.316;2023-07-08T04:08:31;2.67;;;2.00;;
65636;SDS011;52327;42.622;23.316;2023-07-08T04:10:56;2.80;;;1.92;;
65636;SDS011;52327;42.622;23.316;2023-07-08T04:13:22;2.38;;;1.95;;
65636;SDS011;52327;42.622;23.316;2023-07-08T04:15:50;1.75;;;1.48;;
65636;SDS011;52327;42.622;23.316;2023-07-08T04:18:20;3.80;;;1.85;;
65636;SDS011;52327;42.622;23.316;2023-07-08T04:20:45;3.00;;;1.85;;
65636;SDS011;52327;42.622;23.316;2023-07-08T04:23:17;2.47;;;1.50;;
65636;SDS011;52327;42.622;23.316;2023-07-08T04:25:49;1.80;;;1.45;;
65636;SDS011;52327;42.622;23.316;2023-07-08T04:28:17;1.85;;;1.50;;
65636;SDS011;52327;42.622;23.316;2023-07-08T04:30:43;2.47;;;1.77;;
65636;SDS011;52327;42.622;23.316;2023-07-08T04:33:09;3.75;;;2.42;;
65636;SDS011;52327;42.622;23.316;2023-07-08T04:35:38;4.43;;;2.38;;
65636;SDS011;52327;42.622;23.316;2023-07-08T04:38:05;1.98;;;1.15;;
65636;SDS011;52327;42.622;23.316;2023-07-08T04:40:35;1.98;;;1.70;;
65636;SDS011;52327;42.622;23.316;2023-07-08T04:43:08;3.13;;;2.10;;
65636;SDS011;52327;42.622;23.316;2023-07-08T04:45:36;1.25;;;1.00;;
65636;SDS011;52327;42.622;23.316;2023-07-08T04:48:02;1.30;;;1.20;;
65636;SDS011;52327;42.622;23.316;2023-07-08T04:50:37;3.25;;;2.33;;
65636;SDS011;52327;42.622;23.316;2023-07-08T04:53:06;3.03;;;2.15;;
65636;SDS011;52327;42.622;23.316;2023-07-08T04:55:32;2.95;;;2.63;;
65636;SDS011;52327;42.622;23.316;2023-07-08T04:57:57;2.17;;;1.98;;
65636;SDS011;52327;42.622;23.316;2023-07-08T05:00:22;1.98;;;1.15;;
65636;SDS011;52327;42.622;23.316;2023-07-08T05:02:48;3.47;;;2.65;;
65636;SDS011;52327;42.622;23.316;2023-07-08T05:05:14;12.00;;;1.77;;
65636;SDS011;52327;42.622;23.316;2023-07-08T05:07:39;1.90;;;1.58;;
65636;SDS011;52327;42.622;23.316;2023-07-08T05:10:05;2.00;;;1.45;;
65636;SDS011;52327;42.622;23.316;2023-07-08T05:12:31;6.45;;;1.48;;
65636;SDS011;52327;42.622;23.316;2023-07-08T05:14:56;1.30;;;0.98;;
65636;SDS011;52327;42.622;23.316;2023-07-08T05:17:21;2.33;;;1.42;;
65636;SDS011;52327;42.622;23.316;2023-07-08T05:19:47;2.45;;;1.70;;
65636;SDS011;52327;42.622;23.316;2023-07-08T05:22:16;2.20;;;1.02;;
65636;SDS011;52327;42.622;23.316;2023-07-08T05:24:43;2.45;;;2.05;;
65636;SDS011;52327;42.622;23.316;2023-07-08T05:27:08;2.80;;;1.73;;
65636;SDS011;52327;42.622;23.316;2023-07-08T05:29:34;2.20;;;1.45;;
65636;SDS011;52327;42.622;23.316;2023-07-08T05:31:59;1.83;;;1.40;;
65636;SDS011;52327;42.622;23.316;2023-07-08T05:34:25;2.15;;;1.70;;
65636;SDS011;52327;42.622;23.316;2023-07-08T05:36:50;2.50;;;1.48;;
65636;SDS011;52327;42.622;23.316;2023-07-08T05:39:16;3.17;;;2.15;;
65636;SDS011;52327;42.622;23.316;2023-07-08T05:41:41;2.75;;;1.60;;
65636;SDS011;52327;42.622;23.316;2023-07-08T05:44:07;1.98;;;1.35;;
65636;SDS011;52327;42.622;23.316;2023-07-08T05:46:32;2.42;;;2.10;;
65636;SDS011;52327;42.622;23.316;2023-07-08T05:48:57;1.15;;;1.05;;
65636;SDS011;52327;42.622;23.316;2023-07-08T05:51:23;1.30;;;1.20;;
65636;SDS011;52327;42.622;23.316;2023-07-08T05:53:48;3.38;;;1.65;;
65636;SDS011;52327;42.622;23.316;2023-07-08T05:56:14;2.03;;;1.63;;
65636;SDS011;52327;42.622;23.316;2023-07-08T05:58:39;1.88;;;1.27;;
65636;SDS011;52327;42.622;23.316;2023-07-08T06:01:05;2.00;;;1.58;;
65636;SDS011;52327;42.622;23.316;2023-07-08T06:03:30;1.45;;;1.25;;
65636;SDS011;52327;42.622;23.316;2023-07-08T06:05:56;2.47;;;1.45;;
65636;SDS011;52327;42.622;23.316;2023-07-08T06:08:21;0.93;;;0.80;;
65636;SDS011;52327;42.622;23.316;2023-07-08T06:10:47;4.05;;;2.05;;
65636;SDS011;52327;42.622;23.316;2023-07-08T06:13:12;1.85;;;1.63;;
65636;SDS011;52327;42.622;23.316;2023-07-08T06:15:38;2.03;;;1.08;;
65636;SDS011;52327;42.622;23.316;2023-07-08T06:18:04;1.45;;;0.95;;
65636;SDS011;52327;42.622;23.316;2023-07-08T06:20:30;2.33;;;1.30;;
65636;SDS011;52327;42.622;23.316;2023-07-08T06:22:55;2.30;;;1.05;;
65636;SDS011;52327;42.622;23.316;2023-07-08T06:25:21;1.42;;;1.00;;
65636;SDS011;52327;42.622;23.316;2023-07-08T06:27:47;1.77;;;1.27;;
65636;SDS011;52327;42.622;23.316;2023-07-08T06:30:12;3.15;;;1.38;;
65636;SDS011;52327;42.622;23.316;2023-07-08T06:32:38;2.58;;;1.33;;
65636;SDS011;52327;42.622;23.316;2023-07-08T06:35:03;2.15;;;1.52;;
65636;SDS011;52327;42.622;23.316;2023-07-08T06:37:29;1.20;;;0.93;;
65636;SDS011;52327;42.622;23.316;2023-07-08T06:39:55;1.35;;;1.08;;
65636;SDS011;52327;42.622;23.316;2023-07-08T06:42:20;2.17;;;1.63;;
65636;SDS011;52327;42.622;23.316;2023-07-08T06:44:46;2.45;;;1.30;;
65636;SDS011;52327;42.622;23.316;2023-07-08T06:47:18;1.33;;;0.88;;
65636;SDS011;52327;42.622;23.316;2023-07-08T06:49:45;0.98;;;0.90;;
65636;SDS011;52327;42.622;23.316;2023-07-08T06:52:13;1.20;;;1.10;;
65636;SDS011;52327;42.622;23.316;2023-07-08T06:54:40;0.73;;;0.63;;
65636;SDS011;52327;42.622;23.316;2023-07-08T06:57:06;2.08;;;1.08;;
65636;SDS011;52327;42.622;23.316;2023-07-08T06:59:32;2.67;;;1.77;;
65636;SDS011;52327;42.622;23.316;2023-07-08T07:01:59;2.10;;;1.42;;
65636;SDS011;52327;42.622;23.316;2023-07-08T07:04:24;2.67;;;1.48;;
65636;SDS011;52327;42.622;23.316;2023-07-08T07:06:50;2.50;;;1.52;;
65636;SDS011;52327;42.622;23.316;2023-07-08T07:09:15;1.20;;;1.10;;
65636;SDS011;52327;42.622;23.316;2023-07-08T07:11:40;1.67;;;1.20;;
65636;SDS011;52327;42.622;23.316;2023-07-08T07:14:06;2.40;;;1.83;;
65636;SDS011;52327;42.622;23.316;2023-07-08T07:16:31;2.65;;;1.50;;
65636;SDS011;52327;42.622;23.316;2023-07-08T07:18:57;2.20;;;1.77;;
65636;SDS011;52327;42.622;23.316;2023-07-08T07:21:22;1.70;;;1.35;;
65636;SDS011;52327;42.622;23.316;2023-07-08T07:23:48;2.05;;;1.35;;
65636;SDS011;52327;42.622;23.316;2023-07-08T07:26:16;1.83;;;1.45;;
65636;SDS011;52327;42.622;23.316;2023-07-08T07:28:45;1.45;;;1.23;;
65636;SDS011;52327;42.622;23.316;2023-07-08T07:31:10;2.90;;;1.70;;
65636;SDS011;52327;42.622;23.316;2023-07-08T07:33:36;2.85;;;2.05;;
65636;SDS011;52327;42.622;23.316;2023-07-08T07:36:02;2.47;;;1.92;;
65636;SDS011;52327;42.622;23.316;2023-07-08T07:38:28;2.22;;;1.50;;
65636;SDS011;52327;42.622;23.316;2023-07-08T07:40:55;2.53;;;2.03;;
65636;SDS011;52327;42.622;23.316;2023-07-08T07:43:21;3.67;;;1.83;;
65636;SDS011;52327;42.622;23.316;2023-07-08T07:45:53;2.00;;;1.58;;
65636;SDS011;52327;42.622;23.316;2023-07-08T07:48:19;5.28;;;1.45;;
65636;SDS011;52327;42.622;23.316;2023-07-08T07:50:48;2.22;;;1.35;;
65636;SDS011;52327;42.622;23.316;2023-07-08T07:53:15;3.45;;;2.05;;
65636;SDS011;52327;42.622;23.316;2023-07-08T07:55:40;2.28;;;1.38;;
65636;SDS011;52327;42.622;23.316;2023-07-08T07:58:06;1.85;;;1.17;;
65636;SDS011;52327;42.622;23.316;2023-07-08T08:00:33;2.17;;;1.60;;
65636;SDS011;52327;42.622;23.316;2023-07-08T08:02:58;0.98;;;0.93;;
65636;SDS011;52327;42.622;23.316;2023-07-08T08:05:24;2.28;;;1.30;;
65636;SDS011;52327;42.622;23.316;2023-07-08T08:07:49;1.88;;;1.63;;
65636;SDS011;52327;42.622;23.316;2023-07-08T08:10:15;2.45;;;1.65;;
65636;SDS011;52327;42.622;23.316;2023-07-08T08:12:41;1.88;;;1.45;;
65636;SDS011;52327;42.622;23.316;2023-07-08T08:15:06;1.25;;;1.15;;
65636;SDS011;52327;42.622;23.316;2023-07-08T08:17:32;0.95;;;0.95;;
65636;SDS011;52327;42.622;23.316;2023-07-08T08:19:58;1.40;;;1.20;;
65636;SDS011;52327;42.622;23.316;2023-07-08T08:22:23;1.85;;;1.50;;
65636;SDS011;52327;42.622;23.316;2023-07-08T08:24:49;3.35;;;1.42;;
65636;SDS011;52327;42.622;23.316;2023-07-08T08:27:15;1.88;;;1.42;;
65636;SDS011;52327;42.622;23.316;2023-07-08T08:29:40;1.63;;;1.00;;
65636;SDS011;52327;42.622;23.316;2023-07-08T08:32:06;3.45;;;1.48;;
65636;SDS011;52327;42.622;23.316;2023-07-08T08:34:31;2.08;;;1.30;;
65636;SDS011;52327;42.622;23.316;2023-07-08T08:36:57;2.13;;;1.50;;
65636;SDS011;52327;42.622;23.316;2023-07-08T08:39:23;1.90;;;1.73;;
65636;SDS011;52327;42.622;23.316;2023-07-08T08:41:51;1.67;;;1.45;;
65636;SDS011;52327;42.622;23.316;2023-07-08T08:44:33;1.60;;;1.02;;
65636;SDS011;52327;42.622;23.316;2023-07-08T08:47:01;1.08;;;0.90;;
65636;SDS011;52327;42.622;23.316;2023-07-08T08:49:31;1.17;;;1.00;;
65636;SDS011;52327;42.622;23.316;2023-07-08T08:52:02;2.85;;;1.67;;
65636;SDS011;52327;42.622;23.316;2023-07-08T08:54:28;1.52;;;1.20;;
65636;SDS011;52327;42.622;23.316;2023-07-08T08:59:45;1.45;;;1.25;;
65636;SDS011;52327;42.622;23.316;2023-07-08T09:05:03;1.20;;;0.98;;
65636;SDS011;52327;42.622;23.316;2023-07-08T09:08:13;3.00;;;1.73;;
65636;SDS011;52327;42.622;23.316;2023-07-08T09:11:00;1.02;;;0.93;;
65636;SDS011;52327;42.622;23.316;2023-07-08T09:13:36;1.15;;;0.77;;
65636;SDS011;52327;42.622;23.316;2023-07-08T09:16:07;1.65;;;1.15;;
65636;SDS011;52327;42.622;23.316;2023-07-08T09:19:00;3.40;;;1.50;;
65636;SDS011;52327;42.622;23.316;2023-07-08T09:21:31;1.40;;;0.93;;
65636;SDS011;52327;42.622;23.316;2023-07-08T09:24:04;3.17;;;1.55;;
65636;SDS011;52327;42.622;23.316;2023-07-08T09:26:35;1.70;;;1.30;;
65636;SDS011;52327;42.622;23.316;2023-07-08T09:29:01;1.02;;;0.93;;
65636;SDS011;52327;42.622;23.316;2023-07-08T09:31:32;1.88;;;1.38;;
65636;SDS011;52327;42.622;23.316;2023-07-08T09:34:11;1.13;;;0.88;;
65636;SDS011;52327;42.622;23.316;2023-07-08T09:36:40;1.38;;;1.27;;
65636;SDS011;52327;42.622;23.316;2023-07-08T09:39:09;2.20;;;1.42;;
65636;SDS011;52327;42.622;23.316;2023-07-08T09:41:38;2.03;;;1.23;;
65636;SDS011;52327;42.622;23.316;2023-07-08T09:44:23;1.45;;;1.10;;
65636;SDS011;52327;42.622;23.316;2023-07-08T09:46:58;2.45;;;1.42;;
65636;SDS011;52327;42.622;23.316;2023-07-08T09:49:26;2.42;;;1.15;;
65636;SDS011;52327;42.622;23.316;2023-07-08T09:51:54;1.73;;;1.30;;
65636;SDS011;52327;42.622;23.316;2023-07-08T09:54:20;1.75;;;1.25;;
65636;SDS011;52327;42.622;23.316;2023-07-08T10:03:15;0.85;;;0.77;;
65636;SDS011;52327;42.622;23.316;2023-07-08T10:06:03;1.90;;;1.15;;
65636;SDS011;52327;42.622;23.316;2023-07-08T10:08:48;1.15;;;0.95;;
65636;SDS011;52327;42.622;23.316;2023-07-08T10:11:20;1.20;;;0.88;;
65636;SDS011;52327;42.622;23.316;2023-07-08T10:17:17;2.40;;;1.40;;
65636;SDS011;52327;42.622;23.316;2023-07-08T10:20:04;1.75;;;1.00;;
65636;SDS011;52327;42.622;23.316;2023-07-08T10:26:05;1.40;;;0.93;;
65636;SDS011;52327;42.622;23.316;2023-07-08T10:35:19;1.63;;;0.75;;
65636;SDS011;52327;42.622;23.316;2023-07-08T10:48:56;0.82;;;0.73;;
65636;SDS011;52327;42.622;23.316;2023-07-08T11:03:17;1.27;;;0.80;;
65636;SDS011;52327;42.622;23.316;2023-07-08T11:06:10;1.77;;;0.90;;
65636;SDS011;52327;42.622;23.316;2023-07-08T11:08:48;1.25;;;0.90;;
65636;SDS011;52327;42.622;23.316;2023-07-08T11:11:27;1.17;;;1.08;;
65636;SDS011;52327;42.622;23.316;2023-07-08T11:16:44;0.75;;;0.75;;
65636;SDS011;52327;42.622;23.316;2023-07-08T11:19:17;0.95;;;0.85;;
65636;SDS011;52327;42.622;23.316;2023-07-08T11:21:52;1.85;;;1.13;;
65636;SDS011;52327;42.622;23.316;2023-07-08T11:24:39;1.73;;;0.98;;
65636;SDS011;52327;42.622;23.316;2023-07-08T11:32:41;1.30;;;0.90;;
65636;SDS011;52327;42.622;23.316;2023-07-08T11:35:19;1.83;;;1.30;;
65636;SDS011;52327;42.622;23.316;2023-07-08T11:37:52;0.95;;;0.77;;
65636;SDS011;52327;42.622;23.316;2023-07-08T11:40:20;1.63;;;1.25;;
65636;SDS011;52327;42.622;23.316;2023-07-08T11:42:48;1.45;;;1.00;;
65636;SDS011;52327;42.622;23.316;2023-07-08T11:47:47;1.00;;;0.90;;
65636;SDS011;52327;42.622;23.316;2023-07-08T11:50:22;0.82;;;0.77;;
65636;SDS011;52327;42.622;23.316;2023-07-08T11:53:00;2.78;;;1.00;;
65636;SDS011;52327;42.622;23.316;2023-07-08T11:55:35;1.25;;;1.02;;
65636;SDS011;52327;42.622;23.316;2023-07-08T11:58:31;1.88;;;1.15;;
65636;SDS011;52327;42.622;23.316;2023-07-08T12:03:49;1.35;;;1.05;;
65636;SDS011;52327;42.622;23.316;2023-07-08T12:08:51;1.17;;;0.82;;
65636;SDS011;52327;42.622;23.316;2023-07-08T12:11:26;0.93;;;0.70;;
65636;SDS011;52327;42.622;23.316;2023-07-08T12:13:55;1.42;;;0.98;;
65636;SDS011;52327;42.622;23.316;2023-07-08T12:16:24;1.45;;;0.95;;
65636;SDS011;52327;42.622;23.316;2023-07-08T12:18:50;1.73;;;1.23;;
65636;SDS011;52327;42.622;23.316;2023-07-08T12:21:17;0.80;;;0.80;;
65636;SDS011;52327;42.622;23.316;2023-07-08T12:23:46;1.75;;;1.23;;
65636;SDS011;52327;42.622;23.316;2023-07-08T12:26:13;1.52;;;1.20;;
65636;SDS011;52327;42.622;23.316;2023-07-08T12:28:40;1.52;;;0.90;;
65636;SDS011;52327;42.622;23.316;2023-07-08T12:31:17;0.98;;;0.80;;
65636;SDS011;52327;42.622;23.316;2023-07-08T12:33:44;1.10;;;0.88;;
65636;SDS011;52327;42.622;23.316;2023-07-08T12:36:11;0.90;;;0.80;;
65636;SDS011;52327;42.622;23.316;2023-07-08T12:38:42;0.68;;;0.68;;
65636;SDS011;52327;42.622;23.316;2023-07-08T12:41:12;1.35;;;0.80;;
65636;SDS011;52327;42.622;23.316;2023-07-08T12:43:40;1.00;;;0.90;;
65636;SDS011;52327;42.622;23.316;2023-07-08T12:46:06;1.15;;;1.05;;
65636;SDS011;52327;42.622;23.316;2023-07-08T12:48:35;0.68;;;0.63;;
65636;SDS011;52327;42.622;23.316;2023-07-08T12:51:05;1.80;;;0.98;;
65636;SDS011;52327;42.622;23.316;2023-07-08T12:53:35;0.65;;;0.60;;
65636;SDS011;52327;42.622;23.316;2023-07-08T12:56:00;0.57;;;0.50;;
65636;SDS011;52327;42.622;23.316;2023-07-08T12:58:28;1.25;;;0.63;;
65636;SDS011;52327;42.622;23.316;2023-07-08T13:00:55;0.90;;;0.63;;
65636;SDS011;52327;42.622;23.316;2023-07-08T13:03:24;1.40;;;1.00;;
65636;SDS011;52327;42.622;23.316;2023-07-08T13:05:52;2.70;;;1.77;;
65636;SDS011;52327;42.622;23.316;2023-07-08T13:08:21;1.55;;;1.10;;
65636;SDS011;52327;42.622;23.316;2023-07-08T13:10:50;2.58;;;1.27;;
65636;SDS011;52327;42.622;23.316;2023-07-08T13:13:20;1.52;;;0.85;;
65636;SDS011;52327;42.622;23.316;2023-07-08T13:15:48;1.05;;;0.82;;
65636;SDS011;52327;42.622;23.316;2023-07-08T13:20:45;0.95;;;0.80;;
65636;SDS011;52327;42.622;23.316;2023-07-08T13:23:16;1.10;;;0.80;;
65636;SDS011;52327;42.622;23.316;2023-07-08T13:25:43;1.00;;;0.80;;
65636;SDS011;52327;42.622;23.316;2023-07-08T13:28:28;0.57;;;0.57;;
65636;SDS011;52327;42.622;23.316;2023-07-08T13:31:39;0.60;;;0.60;;
65636;SDS011;52327;42.622;23.316;2023-07-08T13:34:02;0.60;;;0.60;;
65636;SDS011;52327;42.622;23.316;2023-07-08T13:36:40;2.10;;;1.00;;
65636;SDS011;52327;42.622;23.316;2023-07-08T13:39:08;0.73;;;0.63;;
65636;SDS011;52327;42.622;23.316;2023-07-08T13:41:42;1.42;;;0.88;;
65636;SDS011;52327;42.622;23.316;2023-07-08T13:44:09;2.17;;;1.30;;
65636;SDS011;52327;42.622;23.316;2023-07-08T13:51:51;1.55;;;0.95;;
65636;SDS011;52327;42.622;23.316;2023-07-08T13:54:27;4.22;;;0.90;;
65636;SDS011;52327;42.622;23.316;2023-07-08T13:57:00;3.85;;;0.80;;
65636;SDS011;52327;42.622;23.316;2023-07-08T13:59:27;1.08;;;0.95;;
65636;SDS011;52327;42.622;23.316;2023-07-08T14:01:54;0.82;;;0.57;;
65636;SDS011;52327;42.622;23.316;2023-07-08T14:04:32;1.00;;;0.80;;
65636;SDS011;52327;42.622;23.316;2023-07-08T14:07:00;1.10;;;1.00;;
65636;SDS011;52327;42.622;23.316;2023-07-08T14:09:25;2.20;;;1.13;;
65636;SDS011;52327;42.622;23.316;2023-07-08T14:11:51;1.85;;;0.80;;
65636;SDS011;52327;42.622;23.316;2023-07-08T14:14:18;1.05;;;0.80;;
65636;SDS011;52327;42.622;23.316;2023-07-08T14:16:53;1.17;;;0.82;;
65636;SDS011;52327;42.622;23.316;2023-07-08T14:19:20;0.88;;;0.60;;
65636;SDS011;52327;42.622;23.316;2023-07-08T14:21:54;1.52;;;0.70;;
65636;SDS011;52327;42.622;23.316;2023-07-08T14:24:21;1.42;;;1.02;;
65636;SDS011;52327;42.622;23.316;2023-07-08T14:26:47;0.68;;;0.68;;
65636;SDS011;52327;42.622;23.316;2023-07-08T14:29:13;2.95;;;1.15;;
65636;SDS011;52327;42.622;23.316;2023-07-08T14:31:39;1.50;;;0.90;;
65636;SDS011;52327;42.622;23.316;2023-07-08T14:34:06;17.95;;;8.18;;
65636;SDS011;52327;42.622;23.316;2023-07-08T14:36:32;12.02;;;6.75;;
65636;SDS011;52327;42.622;23.316;2023-07-08T14:38:58;0.70;;;0.70;;
65636;SDS011;52327;42.622;23.316;2023-07-08T14:41:24;1.70;;;1.02;;
65636;SDS011;52327;42.622;23.316;2023-07-08T14:43:50;0.95;;;0.80;;
65636;SDS011;52327;42.622;23.316;2023-07-08T14:46:16;1.67;;;0.57;;
65636;SDS011;52327;42.622;23.316;2023-07-08T14:48:41;1.17;;;0.63;;
65636;SDS011;52327;42.622;23.316;2023-07-08T14:51:07;0.82;;;0.60;;
65636;SDS011;52327;42.622;23.316;2023-07-08T14:53:33;1.67;;;1.00;;
65636;SDS011;52327;42.622;23.316;2023-07-08T14:55:58;0.60;;;0.47;;
65636;SDS011;52327;42.622;23.316;2023-07-08T14:58:30;1.27;;;1.00;;
65636;SDS011;52327;42.622;23.316;2023-07-08T15:00:59;0.85;;;0.68;;
65636;SDS011;52327;42.622;23.316;2023-07-08T15:03:27;2.22;;;0.90;;
65636;SDS011;52327;42.622;23.316;2023-07-08T15:05:53;0.60;;;0.60;;
65636;SDS011;52327;42.622;23.316;2023-07-08T15:08:19;0.70;;;0.70;;
65636;SDS011;52327;42.622;23.316;2023-07-08T15:10:45;0.95;;;0.77;;
65636;SDS011;52327;42.622;23.316;2023-07-08T15:13:15;1.48;;;0.95;;
65636;SDS011;52327;42.622;23.316;2023-07-08T15:15:43;1.25;;;0.70;;
65636;SDS011;52327;42.622;23.316;2023-07-08T15:18:10;1.55;;;0.93;;
65636;SDS011;52327;42.622;23.316;2023-07-08T15:20:41;0.63;;;0.60;;
65636;SDS011;52327;42.622;23.316;2023-07-08T15:23:07;2.38;;;1.20;;
65636;SDS011;52327;42.622;23.316;2023-07-08T15:25:34;1.48;;;0.88;;
65636;SDS011;52327;42.622;23.316;2023-07-08T15:28:02;0.82;;;0.65;;
65636;SDS011;52327;42.622;23.316;2023-07-08T15:30:29;0.98;;;0.77;;
65636;SDS011;52327;42.622;23.316;2023-07-08T15:32:55;1.10;;;1.00;;
65636;SDS011;52327;42.622;23.316;2023-07-08T15:35:26;0.82;;;0.75;;
65636;SDS011;52327;42.622;23.316;2023-07-08T15:37:57;1.80;;;1.10;;
65636;SDS011;52327;42.622;23.316;2023-07-08T15:40:30;0.85;;;0.82;;
65636;SDS011;52327;42.622;23.316;2023-07-08T15:42:58;0.95;;;0.80;;
65636;SDS011;52327;42.622;23.316;2023-07-08T15:45:27;0.82;;;0.65;;
65636;SDS011;52327;42.622;23.316;2023-07-08T15:47:55;1.30;;;0.90;;
65636;SDS011;52327;42.622;23.316;2023-07-08T15:50:21;1.60;;;1.10;;
65636;SDS011;52327;42.622;23.316;2023-07-08T15:52:49;3.33;;;1.33;;
65636;SDS011;52327;42.622;23.316;2023-07-08T15:55:17;3.00;;;1.00;;
65636;SDS011;52327;42.622;23.316;2023-07-08T15:57:55;1.63;;;1.08;;
65636;SDS011;52327;42.622;23.316;2023-07-08T16:00:26;0.90;;;0.77;;
65636;SDS011;52327;42.622;23.316;2023-07-08T16:02:56;2.25;;;1.30;;
65636;SDS011;52327;42.622;23.316;2023-07-08T16:07:50;1.45;;;0.98;;
65636;SDS011;52327;42.622;23.316;2023-07-08T16:10:17;1.27;;;1.02;;
65636;SDS011;52327;42.622;23.316;2023-07-08T16:12:43;1.15;;;0.60;;
65636;SDS011;52327;42.622;23.316;2023-07-08T16:15:14;2.38;;;1.27;;